createdAt,value
2023-03-18T03:07:52.860Z,99779
2023-03-18T03:13:47.007Z,99776
2023-03-18T03:19:41.500Z,99781
2023-03-18T03:25:34.877Z,99780
2023-03-18T03:31:26.901Z,99783
2023-03-18T03:37:22.040Z,99784
2023-03-18T03:43:23.177Z,99793
2023-03-18T03:49:14.939Z,99806
2023-03-18T03:55:06.083Z,99817
2023-03-18T04:00:58.141Z,99828
2023-03-18T04:06:51.079Z,99828
2023-03-18T04:12:43.490Z,99835
2023-03-18T04:18:35.119Z,99852
2023-03-18T04:24:26.231Z,99853
2023-03-18T04:30:18.223Z,99849
2023-03-18T04:36:09.455Z,99867
2023-03-18T04:42:01.524Z,99873
2023-03-18T04:47:56.471Z,99879
2023-03-18T04:53:50.358Z,99881
2023-03-18T04:59:44.637Z,99877
2023-03-18T05:05:40.916Z,99880
2023-03-18T05:11:33.461Z,99885
2023-03-18T05:17:28.760Z,99878
2023-03-18T05:23:22.021Z,99888
2023-03-18T05:29:14.721Z,99893
2023-03-18T05:35:05.138Z,99891
2023-03-18T05:40:57.094Z,99900
2023-03-18T05:46:50.657Z,99903
2023-03-18T05:52:42.699Z,99910
2023-03-18T05:58:33.061Z,99912
2023-03-18T06:04:24.104Z,99918
2023-03-18T06:10:17.734Z,99919
2023-03-18T06:16:10.392Z,99922
2023-03-18T06:22:01.814Z,99924
2023-03-18T06:27:54.836Z,99914
2023-03-18T06:33:46.725Z,99926
2023-03-18T06:39:39.100Z,99925
2023-03-18T06:45:31.510Z,99939
2023-03-18T06:51:24.449Z,99945
2023-03-18T06:57:16.327Z,99941
2023-03-18T07:03:10.660Z,99944
2023-03-18T07:09:04.100Z,99940
2023-03-18T07:14:58.958Z,99952
2023-03-18T07:20:56.332Z,99960
2023-03-18T07:26:51.288Z,99964
2023-03-18T07:32:44.516Z,99965
2023-03-18T07:38:37.015Z,99974
2023-03-18T07:44:28.737Z,99973
2023-03-18T07:50:21.113Z,99973
2023-03-18T07:56:11.854Z,99975
2023-03-18T08:02:03.463Z,99977
2023-03-18T08:07:55.854Z,99978
2023-03-18T08:13:46.614Z,99984
2023-03-18T08:19:40.619Z,99989
2023-03-18T08:25:32.851Z,99983
2023-03-18T08:31:24.795Z,99980
2023-03-18T08:37:16.224Z,99988
2023-03-18T08:43:08.182Z,99995
2023-03-18T08:48:58.971Z,99995
2023-03-18T08:54:50.435Z,99992
2023-03-18T09:00:41.684Z,99983
2023-03-18T09:06:33.211Z,99978
2023-03-18T09:12:24.975Z,99984
2023-03-18T09:18:16.866Z,99974
2023-03-18T09:24:09.138Z,99977
2023-03-18T09:30:01.086Z,99979
2023-03-18T09:35:53.378Z,99978
2023-03-18T09:41:45.221Z,99985
2023-03-18T09:47:36.728Z,99982
2023-03-18T09:53:27.125Z,99985
2023-03-18T09:59:19.566Z,99984
2023-03-18T10:05:12.221Z,99978
2023-03-18T10:11:02.078Z,99984
2023-03-18T10:16:51.286Z,99986
2023-03-18T12:06:18.244Z,99980
2023-03-18T12:12:15.292Z,99974
2023-03-18T12:18:07.474Z,99967
2023-03-18T12:24:05.861Z,99957
2023-03-18T12:30:12.925Z,99947
2023-03-18T12:36:07.225Z,99949
2023-03-18T12:42:13.520Z,99947
2023-03-18T12:54:03.176Z,99951
2023-03-18T13:00:09.664Z,99947
2023-03-18T13:06:15.508Z,99937
2023-03-18T13:12:22.766Z,99939
2023-03-18T13:24:24.542Z,99929
2023-03-18T13:30:21.371Z,99938
2023-03-18T13:36:25.051Z,99931
2023-03-18T13:42:18.572Z,99918
2023-03-18T13:48:12.637Z,99918
2023-03-18T14:06:17.442Z,99915
2023-03-18T14:24:49.389Z,99905
2023-03-18T17:05:29.811Z,99921
2023-03-18T17:11:22.467Z,99929
2023-03-18T17:17:14.685Z,99937
2023-03-18T17:23:18.406Z,99943
2023-03-18T17:29:17.082Z,99968
2023-03-18T17:35:25.563Z,99962
2023-03-18T17:41:35.005Z,99958
2023-03-18T17:53:21.795Z,99965
2023-03-18T17:59:40.772Z,99967
2023-03-18T18:53:27.067Z,99977
2023-03-18T21:45:39.922Z,100020
